LDSP/SPU METAR and TAF weather

Enter ICAO airport designator
Station Type Date Time Source
LDSP METAR 2020/09/22 16:00 UTC NOAA

LDSP 221600Z 12008KT 090V150 9999 FEW040 SCT058 24/18 Q1014 NOSIG


Station Type Date Time Source
LDSP Decoded METAR 2020/09/22 16:00 UTC NOAA

Split / Resnik, Croatia (LDSP) 43-32N 016-18E 21M
Sep 22, 2020 - 12:00 PM EDT / 2020.09.22 1600 UTC
Wind: from the ESE (120 degrees) at 9 MPH (8 KT) (direction variable):0
Visibility: greater than 7 mile(s):0
Sky conditions: partly cloudy
Temperature: 75 F (24 C)
Dew Point: 64 F (18 C)
Relative Humidity: 69%
Pressure (altimeter): 29.94 in. Hg (1014 hPa)
ob: LDSP 221600Z 12008KT 090V150 9999 FEW040 SCT058 24/18 Q1014 NOSIG
cycle: 16

Station Type Date Time Source
LDSP TAF 2020/09/22 12:27 UTC NOAA

TAF LDSP 221125Z 2212/2312 11010KT 9999 SCT040 TX24/2212Z TN19/2302Z PROB30
TEMPO 2212/2312 VRB15KT TSRA SCT015 FEW020CB BKN035 PROB40
TEMPO 2221/2308 VRB15G25KT 2000 +TSRA BKN012 SCT020CB BKN030
BECMG 2222/2300 VRB02KT

Example: see airport list